sensor_id;sensor_type;location;lat;lon;timestamp;temperature;humidity
4090;DHT22;2059;48.538;12.146;2023-08-06T00:01:57;18.70;99.90
4090;DHT22;2059;48.538;12.146;2023-08-06T00:06:59;18.80;99.90
4090;DHT22;2059;48.538;12.146;2023-08-06T00:12:03;18.70;99.90
4090;DHT22;2059;48.538;12.146;2023-08-06T00:17:05;18.70;99.90
4090;DHT22;2059;48.538;12.146;2023-08-06T00:22:06;18.70;99.90
4090;DHT22;2059;48.538;12.146;2023-08-06T00:27:10;18.70;99.90
4090;DHT22;2059;48.538;12.146;2023-08-06T00:32:11;18.70;99.90
4090;DHT22;2059;48.538;12.146;2023-08-06T00:37:14;18.60;99.90
4090;DHT22;2059;48.538;12.146;2023-08-06T00:42:17;18.60;99.90
4090;DHT22;2059;48.538;12.146;2023-08-06T00:47:21;18.60;99.90
4090;DHT22;2059;48.538;12.146;2023-08-06T00:52:23;18.60;99.90
4090;DHT22;2059;48.538;12.146;2023-08-06T00:57:26;18.60;99.90
4090;DHT22;2059;48.538;12.146;2023-08-06T01:02:28;18.60;99.90
4090;DHT22;2059;48.538;12.146;2023-08-06T01:07:41;18.50;99.90
4090;DHT22;2059;48.538;12.146;2023-08-06T01:12:54;18.50;99.90
4090;DHT22;2059;48.538;12.146;2023-08-06T01:17:57;18.50;99.90
4090;DHT22;2059;48.538;12.146;2023-08-06T01:23:01;18.50;99.90
4090;DHT22;2059;48.538;12.146;2023-08-06T01:28:07;18.40;99.90
4090;DHT22;2059;48.538;12.146;2023-08-06T01:33:16;18.40;99.90
4090;DHT22;2059;48.538;12.146;2023-08-06T01:38:22;18.30;99.90
4090;DHT22;2059;48.538;12.146;2023-08-06T01:43:24;18.30;99.90
4090;DHT22;2059;48.538;12.146;2023-08-06T01:48:25;18.20;99.90
4090;DHT22;2059;48.538;12.146;2023-08-06T01:53:31;18.10;99.90
4090;DHT22;2059;48.538;12.146;2023-08-06T01:58:33;18.00;99.90
4090;DHT22;2059;48.538;12.146;2023-08-06T02:03:35;18.00;99.90
4090;DHT22;2059;48.538;12.146;2023-08-06T02:08:38;17.90;99.90
4090;DHT22;2059;48.538;12.146;2023-08-06T02:13:40;17.80;99.90
4090;DHT22;2059;48.538;12.146;2023-08-06T02:18:42;17.70;99.90
4090;DHT22;2059;48.538;12.146;2023-08-06T02:23:45;17.70;99.90
4090;DHT22;2059;48.538;12.146;2023-08-06T02:28:46;17.60;99.90
4090;DHT22;2059;48.538;12.146;2023-08-06T02:33:48;17.60;99.90
4090;DHT22;2059;48.538;12.146;2023-08-06T02:38:51;17.50;99.90
4090;DHT22;2059;48.538;12.146;2023-08-06T02:43:53;17.50;99.90
4090;DHT22;2059;48.538;12.146;2023-08-06T02:48:55;17.50;99.90
4090;DHT22;2059;48.538;12.146;2023-08-06T02:53:58;17.50;99.90
4090;DHT22;2059;48.538;12.146;2023-08-06T02:59:00;17.50;99.90
4090;DHT22;2059;48.538;12.146;2023-08-06T03:04:01;17.40;99.90
4090;DHT22;2059;48.538;12.146;2023-08-06T03:09:04;17.40;99.90
4090;DHT22;2059;48.538;12.146;2023-08-06T03:14:06;17.40;99.90
4090;DHT22;2059;48.538;12.146;2023-08-06T03:19:08;17.30;99.90
4090;DHT22;2059;48.538;12.146;2023-08-06T03:24:11;17.30;99.90
4090;DHT22;2059;48.538;12.146;2023-08-06T03:29:14;17.30;99.90
4090;DHT22;2059;48.538;12.146;2023-08-06T03:34:16;17.30;99.90
4090;DHT22;2059;48.538;12.146;2023-08-06T03:39:19;17.40;99.90
4090;DHT22;2059;48.538;12.146;2023-08-06T03:44:21;17.50;99.90
4090;DHT22;2059;48.538;12.146;2023-08-06T03:49:23;17.40;99.90
4090;DHT22;2059;48.538;12.146;2023-08-06T03:54:26;17.40;99.90
4090;DHT22;2059;48.538;12.146;2023-08-06T03:59:28;17.30;99.90
4090;DHT22;2059;48.538;12.146;2023-08-06T04:04:30;17.30;99.90
4090;DHT22;2059;48.538;12.146;2023-08-06T04:09:33;17.40;99.90
4090;DHT22;2059;48.538;12.146;2023-08-06T04:14:35;17.30;99.90
4090;DHT22;2059;48.538;12.146;2023-08-06T04:19:36;17.40;99.90
4090;DHT22;2059;48.538;12.146;2023-08-06T04:24:39;17.50;99.90
4090;DHT22;2059;48.538;12.146;2023-08-06T04:29:41;17.50;99.90
4090;DHT22;2059;48.538;12.146;2023-08-06T04:34:43;17.40;99.90
4090;DHT22;2059;48.538;12.146;2023-08-06T04:39:46;17.30;99.90
4090;DHT22;2059;48.538;12.146;2023-08-06T04:44:48;17.40;99.90
4090;DHT22;2059;48.538;12.146;2023-08-06T04:49:50;17.40;99.90
4090;DHT22;2059;48.538;12.146;2023-08-06T04:54:53;17.50;99.90
4090;DHT22;2059;48.538;12.146;2023-08-06T04:59:55;17.50;99.90
4090;DHT22;2059;48.538;12.146;2023-08-06T05:04:57;17.40;99.90
4090;DHT22;2059;48.538;12.146;2023-08-06T05:10:00;17.30;99.90
4090;DHT22;2059;48.538;12.146;2023-08-06T05:15:02;17.40;99.90
4090;DHT22;2059;48.538;12.146;2023-08-06T05:20:05;17.40;99.90
4090;DHT22;2059;48.538;12.146;2023-08-06T05:25:08;17.50;99.90
4090;DHT22;2059;48.538;12.146;2023-08-06T05:30:11;17.50;99.90
4090;DHT22;2059;48.538;12.146;2023-08-06T05:35:12;17.40;99.90
4090;DHT22;2059;48.538;12.146;2023-08-06T05:40:16;17.40;99.90
4090;DHT22;2059;48.538;12.146;2023-08-06T05:45:17;17.50;99.90
4090;DHT22;2059;48.538;12.146;2023-08-06T05:50:19;17.50;99.90
4090;DHT22;2059;48.538;12.146;2023-08-06T05:55:23;17.50;99.90
4090;DHT22;2059;48.538;12.146;2023-08-06T06:00:24;17.40;99.90
4090;DHT22;2059;48.538;12.146;2023-08-06T06:05:29;17.50;99.90
4090;DHT22;2059;48.538;12.146;2023-08-06T06:10:36;17.50;99.90
4090;DHT22;2059;48.538;12.146;2023-08-06T06:15:38;17.60;99.90
4090;DHT22;2059;48.538;12.146;2023-08-06T06:20:40;17.50;99.90
4090;DHT22;2059;48.538;12.146;2023-08-06T06:25:44;17.50;99.90
4090;DHT22;2059;48.538;12.146;2023-08-06T06:30:48;17.40;99.90
4090;DHT22;2059;48.538;12.146;2023-08-06T06:35:50;17.60;99.90
4090;DHT22;2059;48.538;12.146;2023-08-06T06:40:56;17.60;99.90
4090;DHT22;2059;48.538;12.146;2023-08-06T06:45:59;17.90;99.90
4090;DHT22;2059;48.538;12.146;2023-08-06T06:51:01;18.10;99.90
4090;DHT22;2059;48.538;12.146;2023-08-06T06:56:05;18.40;99.90
4090;DHT22;2059;48.538;12.146;2023-08-06T07:01:07;18.50;99.90
4090;DHT22;2059;48.538;12.146;2023-08-06T07:06:10;18.50;99.90
4090;DHT22;2059;48.538;12.146;2023-08-06T07:11:14;18.80;99.90
4090;DHT22;2059;48.538;12.146;2023-08-06T07:16:15;19.10;99.90
4090;DHT22;2059;48.538;12.146;2023-08-06T07:21:17;19.30;99.90
4090;DHT22;2059;48.538;12.146;2023-08-06T07:26:20;19.30;99.90
4090;DHT22;2059;48.538;12.146;2023-08-06T07:31:22;19.10;99.90
4090;DHT22;2059;48.538;12.146;2023-08-06T07:36:24;19.10;99.90
4090;DHT22;2059;48.538;12.146;2023-08-06T07:41:27;19.00;99.90
4090;DHT22;2059;48.538;12.146;2023-08-06T07:46:29;19.10;99.90
4090;DHT22;2059;48.538;12.146;2023-08-06T07:51:31;19.50;99.90
4090;DHT22;2059;48.538;12.146;2023-08-06T07:56:36;20.00;99.90
4090;DHT22;2059;48.538;12.146;2023-08-06T08:01:38;20.00;99.90
4090;DHT22;2059;48.538;12.146;2023-08-06T08:06:40;19.80;99.90
4090;DHT22;2059;48.538;12.146;2023-08-06T08:11:44;19.90;99.90
4090;DHT22;2059;48.538;12.146;2023-08-06T08:16:45;19.80;99.90
4090;DHT22;2059;48.538;12.146;2023-08-06T08:21:47;19.70;99.90
4090;DHT22;2059;48.538;12.146;2023-08-06T08:26:50;19.80;99.90
4090;DHT22;2059;48.538;12.146;2023-08-06T08:31:52;19.90;99.90
4090;DHT22;2059;48.538;12.146;2023-08-06T08:36:54;20.00;99.90
4090;DHT22;2059;48.538;12.146;2023-08-06T08:41:57;20.00;99.90
4090;DHT22;2059;48.538;12.146;2023-08-06T08:46:59;20.10;99.90
4090;DHT22;2059;48.538;12.146;2023-08-06T08:52:02;20.30;99.90
4090;DHT22;2059;48.538;12.146;2023-08-06T08:57:07;20.40;99.90
4090;DHT22;2059;48.538;12.146;2023-08-06T09:02:11;20.60;99.90
4090;DHT22;2059;48.538;12.146;2023-08-06T09:07:18;20.70;99.30
4090;DHT22;2059;48.538;12.146;2023-08-06T09:12:22;20.60;99.70
4090;DHT22;2059;48.538;12.146;2023-08-06T09:17:25;20.20;99.50
4090;DHT22;2059;48.538;12.146;2023-08-06T09:22:34;19.80;99.90
4090;DHT22;2059;48.538;12.146;2023-08-06T09:27:37;19.50;99.90
4090;DHT22;2059;48.538;12.146;2023-08-06T09:32:45;19.60;99.90
4090;DHT22;2059;48.538;12.146;2023-08-06T09:37:48;19.70;99.90
4090;DHT22;2059;48.538;12.146;2023-08-06T09:42:51;20.20;99.90
4090;DHT22;2059;48.538;12.146;2023-08-06T09:47:57;20.20;99.90
4090;DHT22;2059;48.538;12.146;2023-08-06T09:53:00;20.40;99.70
4090;DHT22;2059;48.538;12.146;2023-08-06T09:58:04;20.10;99.70
4090;DHT22;2059;48.538;12.146;2023-08-06T10:03:06;20.90;99.20
4090;DHT22;2059;48.538;12.146;2023-08-06T10:08:09;21.00;98.80
4090;DHT22;2059;48.538;12.146;2023-08-06T10:13:13;20.90;97.30
4090;DHT22;2059;48.538;12.146;2023-08-06T10:18:16;20.90;97.60
4090;DHT22;2059;48.538;12.146;2023-08-06T10:23:33;20.50;97.20
4090;DHT22;2059;48.538;12.146;2023-08-06T10:28:38;19.90;99.90
4090;DHT22;2059;48.538;12.146;2023-08-06T10:33:41;19.50;99.90
4090;DHT22;2059;48.538;12.146;2023-08-06T10:38:45;20.00;99.90
4090;DHT22;2059;48.538;12.146;2023-08-06T10:43:49;19.90;99.90
4090;DHT22;2059;48.538;12.146;2023-08-06T10:48:51;19.60;99.90
4090;DHT22;2059;48.538;12.146;2023-08-06T10:53:53;18.90;99.90
4090;DHT22;2059;48.538;12.146;2023-08-06T10:58:57;18.40;99.90
4090;DHT22;2059;48.538;12.146;2023-08-06T11:04:02;18.20;99.90
4090;DHT22;2059;48.538;12.146;2023-08-06T11:09:05;18.30;99.90
4090;DHT22;2059;48.538;12.146;2023-08-06T11:14:15;18.10;99.90
4090;DHT22;2059;48.538;12.146;2023-08-06T11:19:16;18.10;99.90
4090;DHT22;2059;48.538;12.146;2023-08-06T11:24:18;17.90;99.90
4090;DHT22;2059;48.538;12.146;2023-08-06T11:29:21;17.80;99.90
4090;DHT22;2059;48.538;12.146;2023-08-06T11:34:24;18.10;99.90
4090;DHT22;2059;48.538;12.146;2023-08-06T11:39:26;18.40;99.90
4090;DHT22;2059;48.538;12.146;2023-08-06T11:44:32;18.40;99.90
4090;DHT22;2059;48.538;12.146;2023-08-06T11:49:38;18.50;99.90
4090;DHT22;2059;48.538;12.146;2023-08-06T11:54:40;18.80;99.90
4090;DHT22;2059;48.538;12.146;2023-08-06T11:59:43;19.20;99.90
4090;DHT22;2059;48.538;12.146;2023-08-06T12:04:59;19.80;99.90
4090;DHT22;2059;48.538;12.146;2023-08-06T12:10:00;19.90;99.90
4090;DHT22;2059;48.538;12.146;2023-08-06T12:15:05;19.40;99.90
4090;DHT22;2059;48.538;12.146;2023-08-06T12:20:09;19.00;99.90
4090;DHT22;2059;48.538;12.146;2023-08-06T12:25:11;18.50;99.90
4090;DHT22;2059;48.538;12.146;2023-08-06T12:30:14;18.60;99.90
4090;DHT22;2059;48.538;12.146;2023-08-06T12:35:16;18.80;99.90
4090;DHT22;2059;48.538;12.146;2023-08-06T12:40:18;19.40;99.90
4090;DHT22;2059;48.538;12.146;2023-08-06T12:45:22;19.90;99.90
4090;DHT22;2059;48.538;12.146;2023-08-06T12:50:24;20.20;99.90
4090;DHT22;2059;48.538;12.146;2023-08-06T12:55:25;20.10;99.90
4090;DHT22;2059;48.538;12.146;2023-08-06T13:00:29;19.80;99.90
4090;DHT22;2059;48.538;12.146;2023-08-06T13:05:30;19.80;99.90
4090;DHT22;2059;48.538;12.146;2023-08-06T13:10:32;19.90;98.40
4090;DHT22;2059;48.538;12.146;2023-08-06T13:15:35;20.00;99.40
4090;DHT22;2059;48.538;12.146;2023-08-06T13:20:38;20.30;99.00
4090;DHT22;2059;48.538;12.146;2023-08-06T13:25:40;20.40;97.70
4090;DHT22;2059;48.538;12.146;2023-08-06T13:30:43;19.90;98.10
4090;DHT22;2059;48.538;12.146;2023-08-06T13:35:45;19.10;99.90
4090;DHT22;2059;48.538;12.146;2023-08-06T13:40:46;19.80;99.90
4090;DHT22;2059;48.538;12.146;2023-08-06T13:45:50;19.70;99.80
4090;DHT22;2059;48.538;12.146;2023-08-06T13:50:52;19.60;99.70
4090;DHT22;2059;48.538;12.146;2023-08-06T13:55:54;19.30;99.90
4090;DHT22;2059;48.538;12.146;2023-08-06T14:00:57;19.00;99.90
4090;DHT22;2059;48.538;12.146;2023-08-06T14:05:59;18.90;99.90
4090;DHT22;2059;48.538;12.146;2023-08-06T14:11:00;18.70;99.90
4090;DHT22;2059;48.538;12.146;2023-08-06T14:16:04;18.90;99.90
4090;DHT22;2059;48.538;12.146;2023-08-06T14:21:05;18.90;99.90
4090;DHT22;2059;48.538;12.146;2023-08-06T14:26:07;19.00;99.90
4090;DHT22;2059;48.538;12.146;2023-08-06T14:31:12;19.30;99.90
4090;DHT22;2059;48.538;12.146;2023-08-06T14:36:14;19.10;99.90
4090;DHT22;2059;48.538;12.146;2023-08-06T14:41:15;18.90;99.90
4090;DHT22;2059;48.538;12.146;2023-08-06T14:46:19;18.90;99.90
4090;DHT22;2059;48.538;12.146;2023-08-06T14:51:20;18.50;99.90
4090;DHT22;2059;48.538;12.146;2023-08-06T14:56:22;18.20;99.90
4090;DHT22;2059;48.538;12.146;2023-08-06T15:01:26;17.80;99.90
4090;DHT22;2059;48.538;12.146;2023-08-06T15:06:27;17.50;99.90
4090;DHT22;2059;48.538;12.146;2023-08-06T15:11:29;17.80;99.90
4090;DHT22;2059;48.538;12.146;2023-08-06T15:16:32;18.00;99.90
4090;DHT22;2059;48.538;12.146;2023-08-06T15:21:34;17.80;99.90
4090;DHT22;2059;48.538;12.146;2023-08-06T15:26:36;17.70;99.90
4090;DHT22;2059;48.538;12.146;2023-08-06T15:31:39;17.60;99.90
4090;DHT22;2059;48.538;12.146;2023-08-06T15:36:41;17.60;99.90
4090;DHT22;2059;48.538;12.146;2023-08-06T15:41:43;17.40;99.90
4090;DHT22;2059;48.538;12.146;2023-08-06T15:46:46;17.30;99.90
4090;DHT22;2059;48.538;12.146;2023-08-06T15:51:48;17.20;99.90
4090;DHT22;2059;48.538;12.146;2023-08-06T15:56:50;17.00;99.90
4090;DHT22;2059;48.538;12.146;2023-08-06T16:01:53;17.00;99.90
4090;DHT22;2059;48.538;12.146;2023-08-06T16:06:58;16.90;99.90
4090;DHT22;2059;48.538;12.146;2023-08-06T16:12:00;17.00;99.90
4090;DHT22;2059;48.538;12.146;2023-08-06T16:17:03;16.80;99.90
4090;DHT22;2059;48.538;12.146;2023-08-06T16:22:05;16.70;99.90
4090;DHT22;2059;48.538;12.146;2023-08-06T16:27:06;16.70;99.90
4090;DHT22;2059;48.538;12.146;2023-08-06T16:32:09;16.70;99.90
4090;DHT22;2059;48.538;12.146;2023-08-06T16:37:12;16.70;99.90
4090;DHT22;2059;48.538;12.146;2023-08-06T16:42:14;16.60;99.90
4090;DHT22;2059;48.538;12.146;2023-08-06T16:47:17;16.70;99.90
4090;DHT22;2059;48.538;12.146;2023-08-06T16:52:19;16.80;99.90
4090;DHT22;2059;48.538;12.146;2023-08-06T16:57:20;16.80;99.90
4090;DHT22;2059;48.538;12.146;2023-08-06T17:02:23;16.80;99.90
4090;DHT22;2059;48.538;12.146;2023-08-06T17:07:25;16.70;99.90
4090;DHT22;2059;48.538;12.146;2023-08-06T17:12:27;16.80;99.90
4090;DHT22;2059;48.538;12.146;2023-08-06T17:17:30;16.70;99.90
4090;DHT22;2059;48.538;12.146;2023-08-06T17:22:32;16.70;99.90
4090;DHT22;2059;48.538;12.146;2023-08-06T17:27:34;16.80;99.90
4090;DHT22;2059;48.538;12.146;2023-08-06T17:32:37;16.70;99.90
4090;DHT22;2059;48.538;12.146;2023-08-06T17:37:40;16.70;99.90
4090;DHT22;2059;48.538;12.146;2023-08-06T17:42:42;16.70;99.90
4090;DHT22;2059;48.538;12.146;2023-08-06T17:47:45;16.60;99.90
4090;DHT22;2059;48.538;12.146;2023-08-06T17:52:47;16.50;99.90
4090;DHT22;2059;48.538;12.146;2023-08-06T17:57:49;16.50;99.90
4090;DHT22;2059;48.538;12.146;2023-08-06T18:02:52;16.60;99.90
4090;DHT22;2059;48.538;12.146;2023-08-06T18:07:54;16.50;99.90
4090;DHT22;2059;48.538;12.146;2023-08-06T18:12:56;16.20;99.90
4090;DHT22;2059;48.538;12.146;2023-08-06T18:18:00;16.20;99.90
4090;DHT22;2059;48.538;12.146;2023-08-06T18:23:02;16.20;99.90
4090;DHT22;2059;48.538;12.146;2023-08-06T18:28:05;16.20;99.90
4090;DHT22;2059;48.538;12.146;2023-08-06T18:33:09;16.20;99.90
4090;DHT22;2059;48.538;12.146;2023-08-06T18:38:11;16.20;99.90
4090;DHT22;2059;48.538;12.146;2023-08-06T18:43:14;16.10;99.90
4090;DHT22;2059;48.538;12.146;2023-08-06T18:48:18;16.00;99.90
4090;DHT22;2059;48.538;12.146;2023-08-06T18:53:21;16.10;99.90
4090;DHT22;2059;48.538;12.146;2023-08-06T18:58:25;16.00;99.90
4090;DHT22;2059;48.538;12.146;2023-08-06T19:03:32;16.00;99.90
4090;DHT22;2059;48.538;12.146;2023-08-06T19:08:43;15.90;99.90
4090;DHT22;2059;48.538;12.146;2023-08-06T19:13:51;16.00;99.90
4090;DHT22;2059;48.538;12.146;2023-08-06T19:18:54;16.00;99.90
4090;DHT22;2059;48.538;12.146;2023-08-06T19:23:56;15.90;99.90
4090;DHT22;2059;48.538;12.146;2023-08-06T19:28:59;15.80;99.90
4090;DHT22;2059;48.538;12.146;2023-08-06T19:34:03;15.90;99.90
4090;DHT22;2059;48.538;12.146;2023-08-06T19:39:05;15.90;99.90
4090;DHT22;2059;48.538;12.146;2023-08-06T19:44:07;16.00;99.90
4090;DHT22;2059;48.538;12.146;2023-08-06T19:49:10;16.00;99.90
4090;DHT22;2059;48.538;12.146;2023-08-06T19:54:12;16.10;99.90
4090;DHT22;2059;48.538;12.146;2023-08-06T19:59:14;16.00;99.90
4090;DHT22;2059;48.538;12.146;2023-08-06T20:04:18;16.00;99.90
4090;DHT22;2059;48.538;12.146;2023-08-06T20:09:20;15.90;99.90
4090;DHT22;2059;48.538;12.146;2023-08-06T20:14:21;16.00;99.90
4090;DHT22;2059;48.538;12.146;2023-08-06T20:19:25;15.90;99.90
4090;DHT22;2059;48.538;12.146;2023-08-06T20:24:26;15.80;99.90
4090;DHT22;2059;48.538;12.146;2023-08-06T20:29:28;15.90;99.90
4090;DHT22;2059;48.538;12.146;2023-08-06T20:34:31;15.70;99.90
4090;DHT22;2059;48.538;12.146;2023-08-06T20:39:33;15.90;99.90
4090;DHT22;2059;48.538;12.146;2023-08-06T20:44:34;15.80;99.90
4090;DHT22;2059;48.538;12.146;2023-08-06T20:49:39;15.80;99.90
4090;DHT22;2059;48.538;12.146;2023-08-06T20:54:40;15.70;99.90
4090;DHT22;2059;48.538;12.146;2023-08-06T20:59:42;15.80;99.90
4090;DHT22;2059;48.538;12.146;2023-08-06T21:04:45;15.80;99.90
4090;DHT22;2059;48.538;12.146;2023-08-06T21:09:50;15.90;99.90
4090;DHT22;2059;48.538;12.146;2023-08-06T21:14:53;15.80;99.90
4090;DHT22;2059;48.538;12.146;2023-08-06T21:19:56;15.70;99.90
4090;DHT22;2059;48.538;12.146;2023-08-06T21:24:58;15.80;99.90
4090;DHT22;2059;48.538;12.146;2023-08-06T21:29:59;15.70;99.90
4090;DHT22;2059;48.538;12.146;2023-08-06T21:35:03;15.80;99.90
4090;DHT22;2059;48.538;12.146;2023-08-06T21:40:06;15.70;99.90
4090;DHT22;2059;48.538;12.146;2023-08-06T21:45:08;15.60;99.90
4090;DHT22;2059;48.538;12.146;2023-08-06T21:50:11;15.70;99.90
4090;DHT22;2059;48.538;12.146;2023-08-06T21:55:13;15.60;99.90
4090;DHT22;2059;48.538;12.146;2023-08-06T22:00:15;15.70;99.90
4090;DHT22;2059;48.538;12.146;2023-08-06T22:05:18;15.80;99.90
4090;DHT22;2059;48.538;12.146;2023-08-06T22:10:20;15.80;99.90
4090;DHT22;2059;48.538;12.146;2023-08-06T22:15:22;15.70;99.90
4090;DHT22;2059;48.538;12.146;2023-08-06T22:20:25;15.80;99.90
4090;DHT22;2059;48.538;12.146;2023-08-06T22:25:28;16.00;99.90
4090;DHT22;2059;48.538;12.146;2023-08-06T22:30:30;15.80;99.90
4090;DHT22;2059;48.538;12.146;2023-08-06T22:35:33;15.90;99.90
4090;DHT22;2059;48.538;12.146;2023-08-06T22:40:35;15.90;99.90
4090;DHT22;2059;48.538;12.146;2023-08-06T22:45:37;15.90;99.90
4090;DHT22;2059;48.538;12.146;2023-08-06T22:50:40;15.80;99.90
4090;DHT22;2059;48.538;12.146;2023-08-06T22:55:42;15.60;99.90
4090;DHT22;2059;48.538;12.146;2023-08-06T23:00:44;15.70;99.90
4090;DHT22;2059;48.538;12.146;2023-08-06T23:05:47;15.70;99.90
4090;DHT22;2059;48.538;12.146;2023-08-06T23:10:49;15.70;99.90
4090;DHT22;2059;48.538;12.146;2023-08-06T23:15:50;15.70;99.80
4090;DHT22;2059;48.538;12.146;2023-08-06T23:20:53;15.50;99.90
4090;DHT22;2059;48.538;12.146;2023-08-06T23:25:55;15.50;99.90
4090;DHT22;2059;48.538;12.146;2023-08-06T23:30:57;15.50;99.90
4090;DHT22;2059;48.538;12.146;2023-08-06T23:36:00;15.60;99.90
4090;DHT22;2059;48.538;12.146;2023-08-06T23:41:02;15.60;99.90
4090;DHT22;2059;48.538;12.146;2023-08-06T23:46:03;15.50;99.90
4090;DHT22;2059;48.538;12.146;2023-08-06T23:51:06;15.40;99.90
4090;DHT22;2059;48.538;12.146;2023-08-06T23:56:08;15.50;99.90
